< < Back
Terminal Aerodrome Forecast


Current Version              Previous Versions:   1  2  3  4  5  6  7  8  9  

Terminal Aerodrome Forecast

038
FTUS44 KMOB 290533
TAFMOB
TAF
KMOB 290533Z 2906/3006 36004KT P6SM VCSH FEW030 SCT050 BKN200
     FM291500 16006KT P6SM -RA VCTS BKN050CB
      TEMPO 2915/2919 VRB15G25KT 5SM TSRA BKN030CB
     FM300000 VRB03KT P6SM VCSH SCT050 BKN150=

Latest METAR

188
SAUS80 KWBC 290900 CCA
MTRMOB
METAR KMOB 290856Z AUTO 00000KT 10SM CLR 23/22 A2994 RMK AO2 SLP136
T02280217 56013 $


USA.gov is the U.S. government's official web portal to all federal, state and local government web resources and services.